Time;durP1;ratioP1;P1;durP2;ratioP2;P2;SDS_P1;SDS_P2;PMS_P1;PMS_P2;Temp;Humidity;BMP_temperature;BMP_pressure;BME280_temperature;BME280_humidity;BME280_pressure;Samples;Min_cycle;Max_cycle;Signal;HPM_P1;HPM_P2
2022/05/19 00:01:34;;;;;;;2.63;1.40;;;;;;;;;;5072170;28;20032;-50
2022/05/19 00:04:00;;;;;;;1.55;1.42;;;;;;;;;;5072585;28;20434;-49
2022/05/19 00:06:26;;;;;;;2.38;1.92;;;;;;;;;;5071507;28;20050;-56
2022/05/19 00:08:52;;;;;;;2.42;1.52;;;;;;;;;;5071516;28;20496;-50
2022/05/19 00:11:28;;;;;;;1.50;1.40;;;;;;;;;;5072058;28;20052;-48
2022/05/19 00:13:54;;;;;;;2.75;1.50;;;;;;;;;;5071917;28;20020;-48
2022/05/19 00:16:20;;;;;;;2.25;1.65;;;;;;;;;;5072010;28;20039;-49
2022/05/19 00:18:46;;;;;;;1.90;1.58;;;;;;;;;;5071051;28;20136;-48
2022/05/19 00:21:12;;;;;;;1.83;1.70;;;;;;;;;;5072021;28;20036;-49
2022/05/19 00:23:38;;;;;;;2.65;1.40;;;;;;;;;;5070894;28;20032;-49
2022/05/19 00:26:04;;;;;;;1.70;1.40;;;;;;;;;;5071908;28;20086;-49
2022/05/19 00:28:30;;;;;;;2.03;1.33;;;;;;;;;;5071549;28;20453;-49
2022/05/19 00:30:56;;;;;;;4.07;1.58;;;;;;;;;;5071902;28;20028;-49
2022/05/19 00:33:22;;;;;;;1.70;1.17;;;;;;;;;;5071583;28;20067;-48
2022/05/19 00:35:48;;;;;;;2.35;1.60;;;;;;;;;;5070992;28;20066;-49
2022/05/19 00:38:15;;;;;;;2.05;1.50;;;;;;;;;;5071808;28;20453;-49
2022/05/19 00:40:46;;;;;;;2.67;1.63;;;;;;;;;;5071132;28;20038;-49
2022/05/19 00:43:12;;;;;;;1.25;1.15;;;;;;;;;;5071628;28;20025;-48
2022/05/19 00:45:41;;;;;;;2.00;1.52;;;;;;;;;;5070678;28;20044;-50
2022/05/19 00:48:13;;;;;;;1.65;1.20;;;;;;;;;;5071580;28;20036;-49
2022/05/19 00:50:41;;;;;;;1.67;1.30;;;;;;;;;;5071064;28;20033;-49
2022/05/19 00:53:10;;;;;;;1.52;1.42;;;;;;;;;;5071341;28;20040;-48
2022/05/19 00:55:41;;;;;;;1.15;1.05;;;;;;;;;;5070906;28;20025;-49
2022/05/19 00:58:13;;;;;;;3.08;1.38;;;;;;;;;;5070243;28;20021;-51
2022/05/19 01:00:41;;;;;;;1.35;1.20;;;;;;;;;;5070411;28;20032;-53
2022/05/19 01:03:07;;;;;;;2.50;1.20;;;;;;;;;;5070405;28;20154;-51
2022/05/19 01:05:54;;;;;;;1.85;1.30;;;;;;;;;;5069242;28;20077;-56
2022/05/19 01:08:39;;;;;;;1.27;1.17;;;;;;;;;;5070078;28;20024;-50
2022/05/19 01:11:05;;;;;;;1.40;1.30;;;;;;;;;;5067670;28;20024;-51
2022/05/19 01:13:34;;;;;;;2.75;1.55;;;;;;;;;;5069145;28;20036;-50
2022/05/19 01:16:01;;;;;;;2.75;1.50;;;;;;;;;;5070209;28;20165;-54
2022/05/19 01:18:28;;;;;;;2.05;1.45;;;;;;;;;;5069933;28;20031;-56
2022/05/19 01:20:54;;;;;;;1.95;1.45;;;;;;;;;;5073553;28;20032;-52
2022/05/19 01:23:24;;;;;;;1.92;1.45;;;;;;;;;;5073129;28;20028;-51
2022/05/19 01:25:50;;;;;;;3.67;1.60;;;;;;;;;;5073049;28;20027;-53
2022/05/19 01:28:16;;;;;;;1.50;1.40;;;;;;;;;;5073582;28;20032;-54
2022/05/19 01:30:44;;;;;;;2.47;1.50;;;;;;;;;;5069976;28;20091;-49
2022/05/19 01:33:10;;;;;;;1.92;1.40;;;;;;;;;;5073016;28;20032;-50
2022/05/19 01:35:36;;;;;;;1.70;1.40;;;;;;;;;;5072476;28;20021;-49
2022/05/19 01:38:03;;;;;;;1.60;1.25;;;;;;;;;;5071033;28;20043;-51
2022/05/19 01:40:36;;;;;;;2.88;1.25;;;;;;;;;;5072650;28;20085;-56
2022/05/19 01:43:07;;;;;;;2.13;1.50;;;;;;;;;;5070655;28;20038;-48
2022/05/19 01:45:48;;;;;;;1.48;1.15;;;;;;;;;;5072285;28;20049;-49
2022/05/19 01:48:40;;;;;;;1.23;1.13;;;;;;;;;;5072727;28;20025;-48
2022/05/19 01:51:13;;;;;;;1.60;1.23;;;;;;;;;;5071514;28;20033;-50
2022/05/19 01:53:41;;;;;;;2.25;1.80;;;;;;;;;;5073616;28;20036;-49
2022/05/19 01:56:14;;;;;;;1.45;1.35;;;;;;;;;;5074571;28;20440;-49
2022/05/19 01:58:49;;;;;;;1.85;1.35;;;;;;;;;;5073503;28;20393;-49
2022/05/19 02:01:17;;;;;;;1.50;1.27;;;;;;;;;;5074668;28;20030;-49
2022/05/19 02:03:43;;;;;;;1.52;1.40;;;;;;;;;;5072886;28;20409;-48
2022/05/19 02:06:15;;;;;;;1.60;1.42;;;;;;;;;;5073952;28;20024;-50
2022/05/19 02:08:58;;;;;;;2.50;1.40;;;;;;;;;;5073475;28;20111;-49
2022/05/19 02:11:37;;;;;;;2.13;1.40;;;;;;;;;;5074426;28;20048;-50
2022/05/19 02:14:24;;;;;;;2.20;1.30;;;;;;;;;;5053970;28;20029;-48
2022/05/19 02:16:50;;;;;;;1.73;1.38;;;;;;;;;;5051989;28;20606;-48
2022/05/19 02:19:18;;;;;;;1.98;1.48;;;;;;;;;;5053765;28;20108;-48
2022/05/19 02:21:44;;;;;;;2.85;1.10;;;;;;;;;;5068279;28;20444;-48
2022/05/19 02:24:13;;;;;;;2.05;1.33;;;;;;;;;;5074064;28;20025;-49
2022/05/19 02:26:39;;;;;;;1.35;1.20;;;;;;;;;;5072933;28;20513;-48
2022/05/19 02:29:08;;;;;;;2.08;1.58;;;;;;;;;;5073248;28;20098;-49
2022/05/19 02:31:35;;;;;;;2.50;1.40;;;;;;;;;;5072100;28;20048;-49
2022/05/19 02:34:01;;;;;;;1.20;1.10;;;;;;;;;;5073988;28;20402;-49
2022/05/19 02:36:27;;;;;;;1.13;1.02;;;;;;;;;;5073354;28;20465;-51
2022/05/19 02:38:53;;;;;;;1.85;1.48;;;;;;;;;;5072758;28;20021;-50
2022/05/19 02:41:19;;;;;;;4.40;1.60;;;;;;;;;;5073147;28;20028;-49
2022/05/19 02:43:45;;;;;;;2.17;1.50;;;;;;;;;;5072652;28;20469;-50
2022/05/19 02:46:10;;;;;;;3.05;1.60;;;;;;;;;;5073278;28;20131;-49
2022/05/19 02:48:36;;;;;;;1.98;1.25;;;;;;;;;;5071951;28;20111;-50
2022/05/19 02:51:04;;;;;;;1.52;1.42;;;;;;;;;;5073008;28;20103;-50
2022/05/19 02:53:30;;;;;;;1.75;1.20;;;;;;;;;;5073150;28;20024;-54
2022/05/19 02:55:56;;;;;;;2.15;1.60;;;;;;;;;;5071480;28;20028;-50
2022/05/19 02:58:22;;;;;;;1.77;1.45;;;;;;;;;;5072976;28;20020;-49
2022/05/19 03:00:49;;;;;;;2.83;1.63;;;;;;;;;;5072200;28;20032;-49
2022/05/19 03:03:15;;;;;;;2.10;1.90;;;;;;;;;;5073144;28;20039;-48
2022/05/19 03:05:41;;;;;;;1.50;1.40;;;;;;;;;;5072199;28;20107;-51
2022/05/19 03:08:08;;;;;;;1.60;1.50;;;;;;;;;;5073025;28;20034;-48
2022/05/19 03:10:39;;;;;;;1.23;1.13;;;;;;;;;;5072113;28;20359;-56
2022/05/19 03:13:05;;;;;;;1.92;1.33;;;;;;;;;;5073272;28;20017;-48
2022/05/19 03:15:32;;;;;;;2.25;1.20;;;;;;;;;;5072419;28;20044;-55
2022/05/19 03:17:58;;;;;;;1.77;1.10;;;;;;;;;;5072444;28;20020;-49
2022/05/19 03:20:24;;;;;;;1.50;1.40;;;;;;;;;;5072511;28;20077;-49
2022/05/19 03:22:50;;;;;;;1.52;1.42;;;;;;;;;;5071656;28;20032;-48
2022/05/19 03:25:16;;;;;;;1.52;1.42;;;;;;;;;;5072696;28;20028;-48
2022/05/19 03:27:42;;;;;;;2.35;1.27;;;;;;;;;;5072293;28;20500;-49
2022/05/19 03:30:13;;;;;;;1.40;1.30;;;;;;;;;;5072407;28;20033;-48
2022/05/19 03:32:39;;;;;;;3.25;1.75;;;;;;;;;;5071927;28;20029;-49
2022/05/19 03:35:05;;;;;;;2.50;1.48;;;;;;;;;;5072556;28;20342;-48
2022/05/19 03:37:31;;;;;;;1.70;1.23;;;;;;;;;;5072057;28;20020;-48
2022/05/19 03:39:57;;;;;;;1.83;1.27;;;;;;;;;;5071357;28;20036;-49
2022/05/19 03:42:23;;;;;;;1.75;1.58;;;;;;;;;;5071367;28;20047;-48
2022/05/19 03:44:49;;;;;;;1.17;1.08;;;;;;;;;;5071502;28;20116;-49
2022/05/19 03:47:15;;;;;;;1.90;1.40;;;;;;;;;;5072534;28;20476;-48
2022/05/19 03:49:41;;;;;;;1.95;1.45;;;;;;;;;;5071352;28;20032;-48
2022/05/19 03:52:07;;;;;;;2.17;1.23;;;;;;;;;;5072511;28;20025;-48
2022/05/19 03:54:33;;;;;;;1.92;1.20;;;;;;;;;;5071973;28;20111;-52
2022/05/19 03:56:59;;;;;;;1.75;1.35;;;;;;;;;;5071833;28;20129;-48
2022/05/19 03:59:25;;;;;;;1.58;1.30;;;;;;;;;;5072061;28;20484;-49
2022/05/19 04:01:51;;;;;;;1.88;1.23;;;;;;;;;;5071280;28;20064;-49
2022/05/19 04:04:17;;;;;;;1.65;1.45;;;;;;;;;;5072232;28;20020;-50
2022/05/19 04:06:43;;;;;;;1.92;1.42;;;;;;;;;;5071275;28;20115;-48
2022/05/19 04:09:09;;;;;;;1.30;1.20;;;;;;;;;;5071585;28;20112;-49
2022/05/19 04:11:35;;;;;;;2.55;1.27;;;;;;;;;;5071694;28;20561;-55
2022/05/19 04:14:01;;;;;;;1.92;1.33;;;;;;;;;;5071779;28;20020;-54
2022/05/19 04:16:28;;;;;;;1.58;1.25;;;;;;;;;;5071727;28;20085;-52
2022/05/19 04:18:54;;;;;;;2.25;1.63;;;;;;;;;;5071013;28;20028;-52
2022/05/19 04:21:20;;;;;;;2.83;1.23;;;;;;;;;;5071957;28;20035;-50
2022/05/19 04:23:46;;;;;;;1.27;1.17;;;;;;;;;;5071274;28;20021;-48
2022/05/19 04:26:12;;;;;;;1.65;1.33;;;;;;;;;;5072000;28;20017;-48
2022/05/19 04:28:38;;;;;;;2.78;1.63;;;;;;;;;;5070958;28;20032;-55
2022/05/19 04:31:04;;;;;;;1.60;1.30;;;;;;;;;;5071843;28;20035;-49
2022/05/19 04:33:30;;;;;;;1.65;1.55;;;;;;;;;;5072031;28;20025;-49
2022/05/19 04:35:56;;;;;;;1.35;1.00;;;;;;;;;;5070994;28;20012;-48
2022/05/19 04:38:22;;;;;;;1.20;1.10;;;;;;;;;;5071575;28;20113;-48
2022/05/19 04:40:49;;;;;;;3.22;1.60;;;;;;;;;;5070796;28;20036;-48
2022/05/19 04:43:21;;;;;;;1.67;1.40;;;;;;;;;;5071903;28;20071;-48
2022/05/19 04:45:54;;;;;;;2.65;1.10;;;;;;;;;;5070828;28;20182;-49
2022/05/19 04:48:20;;;;;;;2.22;1.50;;;;;;;;;;5071625;28;20072;-50
2022/05/19 04:50:46;;;;;;;2.13;1.40;;;;;;;;;;5070976;28;20107;-48
2022/05/19 04:53:13;;;;;;;1.90;1.38;;;;;;;;;;5071971;28;20067;-48
2022/05/19 04:55:39;;;;;;;2.15;1.40;;;;;;;;;;5074932;28;20082;-55
2022/05/19 04:58:06;;;;;;;1.75;1.30;;;;;;;;;;5075337;28;20095;-48
2022/05/19 05:00:32;;;;;;;1.83;1.10;;;;;;;;;;5075329;28;20032;-48
2022/05/19 05:02:58;;;;;;;3.03;1.70;;;;;;;;;;5074611;28;20167;-50
2022/05/19 05:05:24;;;;;;;3.55;1.38;;;;;;;;;;5074695;28;20016;-49
2022/05/19 05:07:50;;;;;;;1.70;1.38;;;;;;;;;;5074374;28;20017;-53
2022/05/19 05:10:16;;;;;;;2.67;1.48;;;;;;;;;;5075570;28;20051;-51
2022/05/19 05:12:43;;;;;;;3.15;1.60;;;;;;;;;;5074543;28;20032;-54
2022/05/19 05:15:09;;;;;;;1.45;1.20;;;;;;;;;;5074800;28;20028;-51
2022/05/19 05:17:35;;;;;;;2.35;1.75;;;;;;;;;;5075047;28;20074;-50
2022/05/19 05:20:01;;;;;;;1.38;1.27;;;;;;;;;;5074455;28;20021;-53
2022/05/19 05:22:30;;;;;;;1.83;1.30;;;;;;;;;;5073975;28;20139;-57
2022/05/19 05:24:56;;;;;;;2.42;1.20;;;;;;;;;;5073461;28;20432;-58
2022/05/19 05:27:22;;;;;;;2.20;1.52;;;;;;;;;;5074282;28;20108;-49
2022/05/19 05:29:48;;;;;;;2.15;1.40;;;;;;;;;;5073826;28;20103;-47
2022/05/19 05:32:14;;;;;;;2.05;1.35;;;;;;;;;;5073868;28;20016;-51
2022/05/19 05:34:40;;;;;;;2.08;1.52;;;;;;;;;;5074261;28;20029;-58
2022/05/19 05:37:07;;;;;;;1.40;1.30;;;;;;;;;;5073986;28;20115;-58
2022/05/19 05:39:34;;;;;;;3.30;1.50;;;;;;;;;;5074132;28;20458;-51
2022/05/19 05:42:00;;;;;;;4.30;1.40;;;;;;;;;;5073200;28;20408;-52
2022/05/19 05:44:26;;;;;;;1.90;1.27;;;;;;;;;;5074774;28;20346;-54
2022/05/19 05:46:52;;;;;;;3.08;1.65;;;;;;;;;;5073464;28;20093;-54
2022/05/19 05:49:18;;;;;;;2.17;1.30;;;;;;;;;;5074153;28;20478;-57
2022/05/19 05:51:46;;;;;;;4.82;1.48;;;;;;;;;;5073339;28;20371;-55
2022/05/19 05:54:12;;;;;;;2.25;1.20;;;;;;;;;;5074293;28;20104;-51
2022/05/19 05:56:38;;;;;;;1.63;1.33;;;;;;;;;;5073931;28;20082;-55
2022/05/19 05:59:04;;;;;;;3.38;2.08;;;;;;;;;;5075050;28;20025;-48
2022/05/19 06:01:30;;;;;;;4.38;1.40;;;;;;;;;;5073378;28;20037;-52
2022/05/19 06:03:56;;;;;;;5.47;1.73;;;;;;;;;;5073095;28;20028;-49
2022/05/19 06:06:23;;;;;;;3.28;1.92;;;;;;;;;;5072460;28;20021;-48
2022/05/19 06:08:50;;;;;;;4.20;1.80;;;;;;;;;;5071975;28;20039;-51
2022/05/19 06:11:16;;;;;;;3.58;1.27;;;;;;;;;;5069707;28;20075;-49
2022/05/19 06:13:43;;;;;;;6.50;1.92;;;;;;;;;;5073102;28;20075;-57
2022/05/19 06:16:09;;;;;;;2.97;1.38;;;;;;;;;;5073276;28;20028;-48
2022/05/19 06:18:35;;;;;;;3.22;1.50;;;;;;;;;;5073265;28;20097;-49
2022/05/19 06:21:01;;;;;;;3.25;1.30;;;;;;;;;;5071987;28;20028;-50
2022/05/19 06:23:27;;;;;;;4.30;1.35;;;;;;;;;;5073431;28;20098;-48
2022/05/19 06:25:53;;;;;;;4.32;2.00;;;;;;;;;;5072358;28;20039;-48
2022/05/19 06:28:19;;;;;;;4.70;2.03;;;;;;;;;;5073150;28;20025;-50
2022/05/19 06:30:45;;;;;;;2.72;1.58;;;;;;;;;;5072531;28;20065;-56
2022/05/19 06:33:12;;;;;;;1.95;1.65;;;;;;;;;;5072913;28;20021;-49
2022/05/19 06:35:38;;;;;;;3.35;1.67;;;;;;;;;;5072783;28;20048;-52
2022/05/19 06:38:05;;;;;;;1.67;1.23;;;;;;;;;;5073701;28;20012;-49
2022/05/19 06:40:33;;;;;;;4.30;1.30;;;;;;;;;;5072692;28;20032;-48
2022/05/19 06:42:59;;;;;;;3.72;1.73;;;;;;;;;;5073579;28;20482;-50
2022/05/19 06:45:26;;;;;;;4.57;1.50;;;;;;;;;;5072451;28;20541;-52
2022/05/19 06:47:53;;;;;;;4.35;1.55;;;;;;;;;;5072356;28;20028;-47
2022/05/19 06:50:20;;;;;;;3.78;1.98;;;;;;;;;;5068847;28;20035;-47
2022/05/19 06:52:48;;;;;;;3.33;2.03;;;;;;;;;;5071870;28;20020;-49
2022/05/19 06:55:15;;;;;;;6.70;1.58;;;;;;;;;;5071165;28;20017;-50
2022/05/19 06:57:41;;;;;;;4.93;1.98;;;;;;;;;;5070986;28;20036;-50
2022/05/19 07:00:09;;;;;;;4.43;1.45;;;;;;;;;;5067315;28;20025;-53
2022/05/19 07:02:35;;;;;;;3.80;1.58;;;;;;;;;;5072195;28;20036;-49
2022/05/19 07:05:01;;;;;;;4.88;1.63;;;;;;;;;;5070991;28;20013;-48
2022/05/19 07:07:27;;;;;;;3.75;1.50;;;;;;;;;;5071299;28;20032;-51
2022/05/19 07:09:53;;;;;;;3.58;1.75;;;;;;;;;;5070719;28;20020;-52
2022/05/19 07:12:24;;;;;;;2.78;1.75;;;;;;;;;;5071128;28;20031;-52
2022/05/19 07:14:51;;;;;;;4.93;1.73;;;;;;;;;;5070339;28;20073;-52
2022/05/19 07:17:17;;;;;;;7.03;1.77;;;;;;;;;;5073437;28;20029;-48
2022/05/19 07:22:29;;;;;;;2.92;1.40;;;;;;;;;;5082073;28;20078;-53
2022/05/19 07:24:55;;;;;;;8.00;2.20;;;;;;;;;;5070696;28;20111;-48
2022/05/19 07:27:21;;;;;;;3.97;1.33;;;;;;;;;;5070762;28;20573;-51
2022/05/19 07:29:47;;;;;;;2.50;1.45;;;;;;;;;;5071043;28;20357;-57
2022/05/19 07:32:13;;;;;;;2.40;1.55;;;;;;;;;;5074291;28;20516;-49
2022/05/19 07:34:40;;;;;;;3.90;1.60;;;;;;;;;;5071175;28;20032;-48
2022/05/19 07:37:06;;;;;;;5.20;1.60;;;;;;;;;;5070324;28;20017;-51
2022/05/19 07:39:32;;;;;;;4.25;1.55;;;;;;;;;;5071200;28;20116;-51
2022/05/19 07:41:58;;;;;;;3.90;1.70;;;;;;;;;;5068928;28;20062;-49
2022/05/19 07:44:25;;;;;;;1.40;1.15;;;;;;;;;;5070878;28;20082;-53
2022/05/19 07:46:52;;;;;;;5.18;1.67;;;;;;;;;;5069369;28;20539;-48
2022/05/19 07:49:18;;;;;;;4.68;1.95;;;;;;;;;;5073708;28;20103;-52
2022/05/19 07:51:45;;;;;;;1.95;1.20;;;;;;;;;;5088617;28;20023;-50
2022/05/19 07:54:15;;;;;;;2.40;1.35;;;;;;;;;;5070295;28;20028;-50
2022/05/19 07:56:43;;;;;;;2.03;1.60;;;;;;;;;;5070750;28;20440;-52
2022/05/19 07:59:09;;;;;;;4.28;1.83;;;;;;;;;;5070127;28;21134;-49
2022/05/19 08:01:36;;;;;;;5.35;1.55;;;;;;;;;;5070956;28;20185;-48
2022/05/19 08:04:02;;;;;;;2.83;1.27;;;;;;;;;;5069798;28;20025;-50
2022/05/19 08:06:28;;;;;;;3.75;1.70;;;;;;;;;;5070702;28;20029;-48
2022/05/19 08:08:55;;;;;;;3.03;1.70;;;;;;;;;;5084904;28;20024;-50
2022/05/19 08:11:22;;;;;;;3.22;1.40;;;;;;;;;;5090493;28;20077;-52
2022/05/19 08:16:33;;;;;;;3.40;1.33;;;;;;;;;;5073509;28;20035;-50
2022/05/19 08:18:59;;;;;;;4.03;1.50;;;;;;;;;;5069458;28;20063;-49
2022/05/19 08:21:25;;;;;;;3.15;1.60;;;;;;;;;;5090737;28;20063;-49
2022/05/19 08:23:51;;;;;;;2.75;1.67;;;;;;;;;;5071660;28;20551;-52
2022/05/19 08:26:17;;;;;;;2.78;1.55;;;;;;;;;;5069739;28;20033;-51
2022/05/19 08:28:44;;;;;;;2.55;1.25;;;;;;;;;;5070793;28;20025;-51
2022/05/19 08:31:11;;;;;;;2.60;1.58;;;;;;;;;;5071073;28;20166;-49
2022/05/19 08:33:38;;;;;;;1.98;1.33;;;;;;;;;;5073580;28;20074;-51
2022/05/19 08:36:05;;;;;;;2.88;1.70;;;;;;;;;;5073496;28;20028;-49
2022/05/19 08:38:31;;;;;;;1.90;1.60;;;;;;;;;;5073826;28;20029;-50
2022/05/19 08:41:05;;;;;;;2.90;1.48;;;;;;;;;;5073889;28;20028;-51
2022/05/19 08:43:55;;;;;;;3.83;1.65;;;;;;;;;;5073303;28;20028;-51
2022/05/19 08:46:30;;;;;;;5.15;2.33;;;;;;;;;;5063264;28;20048;-49
2022/05/19 08:48:56;;;;;;;2.90;1.60;;;;;;;;;;5073190;28;20027;-48
2022/05/19 08:51:29;;;;;;;3.00;1.88;;;;;;;;;;5074256;28;20020;-49
2022/05/19 08:53:58;;;;;;;2.75;1.60;;;;;;;;;;5072519;28;20031;-51
2022/05/19 08:56:26;;;;;;;1.50;1.35;;;;;;;;;;5074129;28;20075;-47
2022/05/19 08:59:11;;;;;;;2.45;1.42;;;;;;;;;;5073287;28;20117;-49
2022/05/19 09:01:44;;;;;;;3.28;1.80;;;;;;;;;;5074249;28;20037;-49
2022/05/19 09:04:21;;;;;;;5.03;2.08;;;;;;;;;;5072104;28;20578;-54
2022/05/19 09:09:56;;;;;;;2.28;1.77;;;;;;;;;;5073516;28;20129;-50
2022/05/19 09:12:23;;;;;;;6.15;2.15;;;;;;;;;;5074177;28;20158;-48
2022/05/19 09:14:50;;;;;;;2.63;1.45;;;;;;;;;;5073530;28;20028;-55
2022/05/19 09:17:17;;;;;;;2.33;1.60;;;;;;;;;;5073518;28;20027;-48
2022/05/19 09:19:47;;;;;;;2.17;1.65;;;;;;;;;;5073274;28;20463;-51
2022/05/19 09:22:14;;;;;;;3.70;1.80;;;;;;;;;;5070545;28;20028;-56
2022/05/19 09:24:41;;;;;;;3.15;2.13;;;;;;;;;;5073589;28;20020;-51
2022/05/19 09:27:07;;;;;;;5.43;2.20;;;;;;;;;;5090102;28;20027;-49
2022/05/19 09:29:45;;;;;;;3.17;1.90;;;;;;;;;;5072519;28;20032;-55
2022/05/19 09:32:14;;;;;;;4.07;2.03;;;;;;;;;;5075558;28;20068;-51
2022/05/19 09:34:44;;;;;;;5.20;2.20;;;;;;;;;;5075716;28;20028;-51
2022/05/19 09:37:10;;;;;;;5.57;2.40;;;;;;;;;;5074458;28;20051;-50
2022/05/19 09:39:44;;;;;;;3.22;2.20;;;;;;;;;;5077677;28;20028;-52
2022/05/19 09:42:12;;;;;;;2.28;2.03;;;;;;;;;;5071087;28;20330;-51
2022/05/19 09:44:48;;;;;;;3.58;1.60;;;;;;;;;;5072729;28;20229;-53
2022/05/19 09:47:16;;;;;;;4.05;1.85;;;;;;;;;;5071461;28;20059;-52
2022/05/19 09:49:49;;;;;;;3.72;2.22;;;;;;;;;;5071860;28;20509;-55
2022/05/19 09:52:23;;;;;;;3.95;2.13;;;;;;;;;;5072505;28;20029;-53
2022/05/19 09:54:53;;;;;;;2.78;1.88;;;;;;;;;;5071682;28;20048;-56
2022/05/19 09:57:24;;;;;;;2.97;1.88;;;;;;;;;;5072122;28;20077;-53
2022/05/19 09:59:52;;;;;;;4.80;2.00;;;;;;;;;;5072159;28;20496;-55
2022/05/19 10:02:21;;;;;;;4.38;1.70;;;;;;;;;;5072387;28;20029;-50
2022/05/19 10:04:55;;;;;;;5.07;1.60;;;;;;;;;;5075282;28;20020;-49
2022/05/19 10:07:23;;;;;;;3.60;1.70;;;;;;;;;;5071686;28;20051;-55
2022/05/19 10:09:50;;;;;;;4.22;1.75;;;;;;;;;;5071134;28;20020;-57
2022/05/19 10:12:22;;;;;;;3.17;1.67;;;;;;;;;;5071764;28;20029;-49
2022/05/19 10:14:51;;;;;;;4.85;1.92;;;;;;;;;;5072443;28;20532;-50
2022/05/19 10:17:44;;;;;;;4.13;2.30;;;;;;;;;;5070935;28;20485;-51
2022/05/19 10:20:19;;;;;;;3.58;2.28;;;;;;;;;;5052805;28;20047;-50
2022/05/19 10:22:54;;;;;;;2.50;2.10;;;;;;;;;;5071366;28;20016;-55
2022/05/19 10:25:38;;;;;;;4.30;1.95;;;;;;;;;;5071594;28;20051;-54
2022/05/19 10:31:04;;;;;;;4.85;2.00;;;;;;;;;;5071616;28;20085;-55
2022/05/19 10:33:33;;;;;;;3.88;1.88;;;;;;;;;;5073631;28;20367;-52
2022/05/19 10:36:21;;;;;;;3.75;1.80;;;;;;;;;;5073520;28;20036;-52
2022/05/19 10:39:06;;;;;;;2.55;1.60;;;;;;;;;;5072312;28;20100;-51
2022/05/19 10:41:50;;;;;;;4.63;1.70;;;;;;;;;;5069981;28;20037;-49
2022/05/19 10:44:19;;;;;;;5.75;2.00;;;;;;;;;;5070024;28;20032;-53
2022/05/19 10:46:45;;;;;;;3.45;1.90;;;;;;;;;;5070828;28;20048;-52
2022/05/19 10:49:12;;;;;;;2.80;1.55;;;;;;;;;;5074079;28;20028;-52
2022/05/19 10:51:38;;;;;;;2.58;1.83;;;;;;;;;;5079538;28;20485;-49
2022/05/19 10:54:07;;;;;;;4.65;2.20;;;;;;;;;;5077579;28;20078;-48
2022/05/19 10:56:34;;;;;;;7.00;2.58;;;;;;;;;;5085553;28;20043;-50
2022/05/19 10:59:19;;;;;;;4.22;2.38;;;;;;;;;;5090372;28;20088;-49
2022/05/19 11:02:03;;;;;;;3.00;1.95;;;;;;;;;;5076574;28;20094;-50
2022/05/19 11:04:40;;;;;;;4.10;1.90;;;;;;;;;;5051560;28;20541;-49
2022/05/19 11:07:13;;;;;;;3.67;2.00;;;;;;;;;;5074564;28;20064;-48
2022/05/19 11:09:48;;;;;;;3.78;2.03;;;;;;;;;;5091850;28;20084;-52
2022/05/19 11:12:20;;;;;;;5.47;2.00;;;;;;;;;;5070271;28;20255;-50
2022/05/19 11:14:47;;;;;;;3.10;1.80;;;;;;;;;;5071358;28;20017;-49
2022/05/19 11:17:32;;;;;;;5.95;1.92;;;;;;;;;;5069686;28;20638;-51
2022/05/19 11:20:05;;;;;;;6.40;2.70;;;;;;;;;;5073108;28;20043;-50
2022/05/19 11:22:33;;;;;;;2.95;1.77;;;;;;;;;;5073383;28;20094;-49
2022/05/19 11:27:56;;;;;;;5.28;2.40;;;;;;;;;;5073809;28;20051;-51
2022/05/19 11:30:25;;;;;;;2.65;2.38;;;;;;;;;;5072516;28;20392;-50
2022/05/19 11:32:55;;;;;;;3.63;2.35;;;;;;;;;;5072984;28;20108;-54
2022/05/19 11:35:41;;;;;;;3.10;2.10;;;;;;;;;;5073295;28;20024;-51
2022/05/19 11:38:36;;;;;;;2.65;1.80;;;;;;;;;;5068757;28;20020;-51
2022/05/19 11:41:10;;;;;;;5.38;1.80;;;;;;;;;;5057860;28;20040;-46
2022/05/19 11:43:40;;;;;;;4.78;2.13;;;;;;;;;;5070596;28;20024;-49
2022/05/19 11:46:18;;;;;;;4.28;2.15;;;;;;;;;;5069266;28;20048;-46
2022/05/19 11:55:12;;;;;;;5.93;2.40;;;;;;;;;;5070703;28;20436;-49
2022/05/19 11:57:42;;;;;;;4.68;2.50;;;;;;;;;;5070923;28;20396;-49
2022/05/19 12:00:11;;;;;;;7.38;3.20;;;;;;;;;;5070062;28;20035;-49
2022/05/19 12:02:39;;;;;;;6.25;2.28;;;;;;;;;;5070118;28;20423;-53
2022/05/19 12:05:28;;;;;;;2.53;2.00;;;;;;;;;;5069690;28;20034;-53
2022/05/19 12:07:57;;;;;;;3.70;2.03;;;;;;;;;;5070719;28;20584;-56
2022/05/19 12:10:37;;;;;;;6.10;2.30;;;;;;;;;;5070903;28;20112;-50
2022/05/19 12:13:04;;;;;;;3.97;2.50;;;;;;;;;;5070279;28;20075;-50
2022/05/19 12:15:49;;;;;;;3.15;2.30;;;;;;;;;;5070705;28;20025;-51
2022/05/19 12:18:27;;;;;;;3.00;2.35;;;;;;;;;;5069765;28;20182;-46
2022/05/19 12:21:02;;;;;;;2.22;2.00;;;;;;;;;;5070460;28;20016;-47
2022/05/19 12:23:33;;;;;;;4.70;2.20;;;;;;;;;;5070260;28;20558;-49
2022/05/19 12:25:59;;;;;;;4.28;2.08;;;;;;;;;;5069476;28;20036;-49
2022/05/19 12:28:49;;;;;;;3.50;2.53;;;;;;;;;;5070618;28;20025;-49
2022/05/19 12:34:19;;;;;;;3.85;2.50;;;;;;;;;;5069595;28;20047;-50
2022/05/19 12:36:45;;;;;;;4.82;2.45;;;;;;;;;;5070557;28;20105;-50
2022/05/19 12:39:13;;;;;;;3.92;2.47;;;;;;;;;;5069214;28;20477;-46
2022/05/19 12:41:49;;;;;;;4.88;2.47;;;;;;;;;;5070318;28;20032;-47
2022/05/19 12:44:34;;;;;;;3.15;2.35;;;;;;;;;;5066593;28;20032;-47
2022/05/19 12:47:33;;;;;;;4.03;2.83;;;;;;;;;;5072857;28;20049;-51
2022/05/19 12:50:03;;;;;;;3.35;2.30;;;;;;;;;;5042492;28;20052;-52
2022/05/19 12:52:48;;;;;;;3.67;2.72;;;;;;;;;;5085779;28;20016;-47
2022/05/19 12:55:22;;;;;;;2.85;2.30;;;;;;;;;;5066153;28;20025;-45
2022/05/19 12:57:48;;;;;;;4.20;2.42;;;;;;;;;;5070047;28;20031;-47
2022/05/19 13:00:34;;;;;;;4.35;2.33;;;;;;;;;;5068890;28;20478;-46
2022/05/19 13:03:04;;;;;;;2.58;2.33;;;;;;;;;;5070172;28;20021;-45
2022/05/19 13:05:33;;;;;;;2.30;2.05;;;;;;;;;;5071602;28;20031;-48
2022/05/19 13:08:14;;;;;;;4.43;2.28;;;;;;;;;;5068835;28;20117;-55
2022/05/19 13:10:41;;;;;;;2.63;2.43;;;;;;;;;;5072480;28;20520;-45
2022/05/19 13:13:26;;;;;;;5.55;2.45;;;;;;;;;;5068768;28;20931;-45
2022/05/19 13:15:59;;;;;;;4.55;2.80;;;;;;;;;;5071998;28;20029;-47
2022/05/19 13:18:36;;;;;;;3.97;2.90;;;;;;;;;;5071396;28;20368;-45
2022/05/19 13:21:04;;;;;;;5.03;2.65;;;;;;;;;;5072632;28;20032;-48
2022/05/19 13:23:31;;;;;;;3.45;2.10;;;;;;;;;;5073976;28;20028;-46
2022/05/19 13:26:16;;;;;;;2.83;2.28;;;;;;;;;;5072666;28;20016;-53
2022/05/19 13:31:48;;;;;;;4.15;2.60;;;;;;;;;;5072680;28;20078;-45
2022/05/19 13:34:14;;;;;;;3.00;2.22;;;;;;;;;;5070265;28;20020;-45
2022/05/19 13:36:41;;;;;;;2.50;2.13;;;;;;;;;;5074531;28;20024;-48
2022/05/19 13:39:13;;;;;;;3.63;2.17;;;;;;;;;;5070962;28;20033;-50
2022/05/19 13:41:48;;;;;;;2.20;2.00;;;;;;;;;;5073161;28;20116;-46
2022/05/19 13:44:17;;;;;;;2.85;2.00;;;;;;;;;;5072885;28;20461;-45
2022/05/19 13:46:44;;;;;;;3.33;2.65;;;;;;;;;;5072360;28;20037;-49
2022/05/19 13:49:11;;;;;;;2.72;2.30;;;;;;;;;;5072031;28;20033;-47
2022/05/19 13:51:39;;;;;;;4.07;2.95;;;;;;;;;;5072963;28;20019;-49
2022/05/19 13:54:06;;;;;;;2.58;2.38;;;;;;;;;;5068722;28;20025;-47
2022/05/19 13:56:36;;;;;;;2.95;2.25;;;;;;;;;;5072445;28;20381;-46
2022/05/19 13:59:03;;;;;;;3.13;2.25;;;;;;;;;;5072532;28;20373;-47
2022/05/19 14:01:31;;;;;;;4.47;2.30;;;;;;;;;;5073194;28;20041;-48
2022/05/19 14:03:58;;;;;;;2.28;1.90;;;;;;;;;;5072752;28;20526;-54
2022/05/19 14:06:26;;;;;;;2.95;2.17;;;;;;;;;;5072818;28;20029;-50
2022/05/19 14:08:53;;;;;;;2.72;2.30;;;;;;;;;;5072587;28;20460;-48
2022/05/19 14:11:19;;;;;;;4.00;2.28;;;;;;;;;;5069561;28;20159;-46
2022/05/19 14:13:45;;;;;;;3.75;2.08;;;;;;;;;;5073627;28;20024;-52
2022/05/19 14:16:13;;;;;;;4.00;2.25;;;;;;;;;;5092033;28;20051;-50
2022/05/19 14:18:40;;;;;;;3.08;2.30;;;;;;;;;;5092986;28;20032;-46
2022/05/19 14:21:08;;;;;;;7.35;2.47;;;;;;;;;;5085596;28;20028;-50
2022/05/19 14:23:47;;;;;;;5.47;2.63;;;;;;;;;;5072939;28;20020;-49
2022/05/19 14:26:13;;;;;;;4.63;2.13;;;;;;;;;;5051026;28;20017;-48
2022/05/19 14:28:41;;;;;;;3.42;2.65;;;;;;;;;;5055711;28;20016;-46
2022/05/19 14:31:09;;;;;;;3.47;2.70;;;;;;;;;;5071860;28;20361;-46
2022/05/19 14:33:57;;;;;;;3.83;2.17;;;;;;;;;;5072751;28;20377;-50
2022/05/19 14:36:25;;;;;;;4.90;2.70;;;;;;;;;;5079127;28;20024;-51
2022/05/19 14:38:54;;;;;;;2.53;2.33;;;;;;;;;;5069175;28;20033;-51
2022/05/19 14:44:23;;;;;;;4.60;2.65;;;;;;;;;;5070643;28;20142;-52
2022/05/19 14:46:59;;;;;;;4.40;2.20;;;;;;;;;;5070598;28;20097;-52
2022/05/19 14:49:28;;;;;;;2.83;2.00;;;;;;;;;;5084808;28;20557;-49
2022/05/19 14:51:54;;;;;;;2.60;2.40;;;;;;;;;;5075938;28;20028;-49
2022/05/19 14:54:25;;;;;;;3.85;2.10;;;;;;;;;;5073123;28;20115;-51
2022/05/19 14:56:58;;;;;;;3.05;1.80;;;;;;;;;;5084773;28;20025;-49
2022/05/19 14:59:36;;;;;;;2.85;2.20;;;;;;;;;;5074782;28;20028;-47
2022/05/19 15:02:03;;;;;;;2.45;2.05;;;;;;;;;;5088769;28;20043;-52
2022/05/19 15:04:29;;;;;;;4.13;2.30;;;;;;;;;;5074373;28;20104;-51
2022/05/19 15:06:56;;;;;;;3.05;2.33;;;;;;;;;;5075378;28;20052;-51
2022/05/19 15:09:23;;;;;;;3.65;2.08;;;;;;;;;;5078626;28;20021;-53
2022/05/19 15:11:49;;;;;;;8.10;2.67;;;;;;;;;;5071457;28;20032;-46
2022/05/19 15:14:15;;;;;;;2.55;2.22;;;;;;;;;;5071167;28;20020;-50
2022/05/19 15:16:41;;;;;;;3.42;2.03;;;;;;;;;;5075810;28;20019;-51
2022/05/19 15:19:12;;;;;;;5.82;2.13;;;;;;;;;;5069099;28;20470;-48
2022/05/19 15:21:39;;;;;;;3.97;2.65;;;;;;;;;;5071787;28;20427;-52
2022/05/19 15:24:05;;;;;;;3.75;1.98;;;;;;;;;;5070702;28;20456;-52
2022/05/19 15:26:31;;;;;;;3.78;2.42;;;;;;;;;;5071129;28;20029;-48